createdAt,value
2023-06-25T00:00:57.142Z,17.65
2023-06-25T00:01:59.161Z,17.64
2023-06-25T00:03:01.244Z,17.63
2023-06-25T00:04:03.564Z,17.61
2023-06-25T00:05:06.057Z,17.62
2023-06-25T00:06:08.068Z,17.60
2023-06-25T00:07:10.122Z,17.61
2023-06-25T00:08:12.181Z,17.59
2023-06-25T00:09:14.553Z,17.57
2023-06-25T00:10:16.559Z,17.58
2023-06-25T00:11:18.539Z,17.54
2023-06-25T00:12:20.587Z,17.53
2023-06-25T00:13:22.575Z,17.54
2023-06-25T00:14:24.548Z,17.53
2023-06-25T00:15:26.585Z,17.56
2023-06-25T00:16:30.526Z,17.55
2023-06-25T00:17:32.685Z,17.57
2023-06-25T00:18:35.331Z,17.55
2023-06-25T00:19:37.340Z,17.56
2023-06-25T00:20:39.812Z,17.55
2023-06-25T00:21:42.419Z,17.53
2023-06-25T00:22:57.500Z,17.53
2023-06-25T00:24:07.149Z,17.52
2023-06-25T00:25:09.415Z,17.49
2023-06-25T00:26:11.763Z,17.49
2023-06-25T00:27:13.810Z,17.49
2023-06-25T00:28:15.822Z,17.47
2023-06-25T00:29:17.790Z,17.49
2023-06-25T00:30:21.827Z,17.50
2023-06-25T00:31:25.257Z,17.51
2023-06-25T00:32:27.406Z,17.44
2023-06-25T00:33:29.444Z,17.47
2023-06-25T00:34:31.418Z,17.45
2023-06-25T00:35:51.811Z,17.43
2023-06-25T00:36:54.095Z,17.40
2023-06-25T00:38:02.726Z,17.38
2023-06-25T00:39:06.431Z,17.41
2023-06-25T00:40:11.703Z,17.38
2023-06-25T00:41:13.802Z,17.35
2023-06-25T00:42:16.159Z,17.36
2023-06-25T00:43:22.486Z,17.36
2023-06-25T00:44:29.561Z,17.37
2023-06-25T00:45:31.620Z,17.37
2023-06-25T00:46:33.600Z,17.37
2023-06-25T00:47:35.643Z,17.35
2023-06-25T00:48:38.780Z,17.37
2023-06-25T00:49:41.537Z,17.34
2023-06-25T00:50:43.857Z,17.32
2023-06-25T00:51:45.855Z,17.31
2023-06-25T00:52:47.825Z,17.28
2023-06-25T00:53:49.910Z,17.28
2023-06-25T00:54:51.950Z,17.32
2023-06-25T00:55:54.501Z,17.29
2023-06-25T00:56:56.518Z,17.28
2023-06-25T00:57:58.608Z,17.26
2023-06-25T00:59:02.100Z,17.25
2023-06-25T01:00:06.410Z,17.26
2023-06-25T01:01:12.678Z,17.27
2023-06-25T01:02:35.750Z,17.29
2023-06-25T01:03:41.389Z,17.25
2023-06-25T01:05:01.626Z,17.23
2023-06-25T01:06:13.637Z,17.21
2023-06-25T01:07:18.814Z,17.20
2023-06-25T01:08:20.968Z,17.23
2023-06-25T01:09:23.004Z,17.21
2023-06-25T01:10:25.029Z,17.19
2023-06-25T01:11:28.581Z,17.18
2023-06-25T01:12:30.589Z,17.15
2023-06-25T01:13:32.692Z,17.14
2023-06-25T01:14:35.637Z,17.13
2023-06-25T01:15:37.826Z,17.11
2023-06-25T01:16:40.010Z,17.12
2023-06-25T01:17:42.088Z,17.10
2023-06-25T01:18:51.381Z,17.09
2023-06-25T01:20:01.134Z,17.11
2023-06-25T01:21:03.153Z,17.06
2023-06-25T01:22:05.929Z,17.06
2023-06-25T01:23:08.208Z,17.08
2023-06-25T01:24:10.242Z,17.10
2023-06-25T01:25:12.300Z,17.11
2023-06-25T01:26:14.265Z,17.06
2023-06-25T01:27:16.245Z,17.06
2023-06-25T01:28:21.587Z,17.06
2023-06-25T01:29:23.718Z,17.06
2023-06-25T01:30:28.193Z,17.07
2023-06-25T01:31:32.932Z,17.01
2023-06-25T01:32:35.288Z,17.05
2023-06-25T01:33:38.155Z,17.04
2023-06-25T01:34:40.163Z,17.06
2023-06-25T01:35:42.207Z,17.01
2023-06-25T01:36:44.381Z,17.02
2023-06-25T01:37:48.245Z,17.05
2023-06-25T01:38:50.213Z,17.02
2023-06-25T01:39:55.214Z,17.01
2023-06-25T01:40:57.292Z,17.01
2023-06-25T01:41:59.280Z,17.02
2023-06-25T01:43:01.245Z,17.00
2023-06-25T01:44:04.112Z,17.00
2023-06-25T01:45:06.718Z,17.03
2023-06-25T01:46:08.794Z,17.04
2023-06-25T01:47:10.948Z,17.07
2023-06-25T01:48:13.160Z,17.08
2023-06-25T01:49:30.398Z,17.11
2023-06-25T01:50:34.731Z,17.11
2023-06-25T01:51:36.720Z,17.08
2023-06-25T01:52:39.206Z,17.08
2023-06-25T01:53:41.187Z,17.07
2023-06-25T01:54:43.198Z,17.07
2023-06-25T01:55:45.185Z,17.09
2023-06-25T01:56:47.151Z,17.12
2023-06-25T01:57:49.197Z,17.12
2023-06-25T01:58:54.289Z,17.11
2023-06-25T01:59:56.348Z,17.10
2023-06-25T02:00:58.372Z,17.11
2023-06-25T02:02:00.350Z,17.09
2023-06-25T02:03:02.541Z,17.11
2023-06-25T02:04:07.556Z,17.11
2023-06-25T02:05:09.680Z,17.06
2023-06-25T02:06:11.785Z,17.12
2023-06-25T02:07:13.870Z,17.09
2023-06-25T02:08:16.019Z,17.07
2023-06-25T02:09:18.029Z,17.09
2023-06-25T02:10:20.067Z,17.08
2023-06-25T02:11:22.056Z,17.07
2023-06-25T02:12:24.024Z,17.06
2023-06-25T02:13:26.001Z,16.98
2023-06-25T02:14:27.977Z,17.01
2023-06-25T02:15:31.019Z,17.03
2023-06-25T02:16:33.047Z,17.04
2023-06-25T02:17:35.079Z,17.02
2023-06-25T02:18:37.636Z,17.04
2023-06-25T02:19:39.654Z,17.04
2023-06-25T02:20:41.760Z,17.04
2023-06-25T02:21:43.732Z,17.05
2023-06-25T02:22:45.796Z,17.04
2023-06-25T02:23:47.868Z,17.00
2023-06-25T02:24:49.868Z,17.01
2023-06-25T02:25:51.836Z,17.02
2023-06-25T02:26:53.871Z,16.99
2023-06-25T02:27:55.892Z,17.02
2023-06-25T02:28:58.579Z,17.00
2023-06-25T02:30:00.672Z,16.99
2023-06-25T02:31:02.704Z,16.97
2023-06-25T02:32:05.020Z,16.98
2023-06-25T02:33:07.206Z,16.97
2023-06-25T02:34:09.310Z,16.97
2023-06-25T02:35:11.316Z,16.92
2023-06-25T02:36:13.336Z,16.92
2023-06-25T02:37:15.925Z,16.93
2023-06-25T02:38:19.753Z,16.94
2023-06-25T02:39:21.795Z,16.92
2023-06-25T02:40:23.828Z,16.91
2023-06-25T02:41:25.831Z,16.90
2023-06-25T02:42:27.844Z,16.89
2023-06-25T02:43:29.914Z,16.90
2023-06-25T02:44:31.920Z,16.90
2023-06-25T02:45:33.978Z,16.92
2023-06-25T02:46:36.810Z,16.89
2023-06-25T02:47:38.944Z,16.89
2023-06-25T02:48:46.936Z,16.93
2023-06-25T02:49:48.917Z,16.95
2023-06-25T02:50:50.882Z,16.93
2023-06-25T02:51:52.913Z,16.92
2023-06-25T02:52:54.899Z,16.95
2023-06-25T02:53:59.790Z,16.97
2023-06-25T02:55:01.775Z,16.96
2023-06-25T02:56:03.832Z,16.98
2023-06-25T02:57:05.989Z,16.99
2023-06-25T02:58:08.033Z,16.98
2023-06-25T02:59:10.106Z,16.98
2023-06-25T03:00:12.527Z,17.00
2023-06-25T03:01:14.642Z,17.00
2023-06-25T03:02:17.570Z,17.01
2023-06-25T03:03:19.690Z,17.01
2023-06-25T03:04:21.837Z,17.01
2023-06-25T03:05:23.921Z,17.03
2023-06-25T03:06:25.893Z,17.02
2023-06-25T03:07:27.898Z,16.97
2023-06-25T03:08:29.971Z,16.97
2023-06-25T03:09:31.938Z,16.95
2023-06-25T03:10:34.635Z,16.98
2023-06-25T03:11:36.630Z,16.98
2023-06-25T03:12:38.632Z,16.95
2023-06-25T03:13:40.616Z,16.97
2023-06-25T03:14:42.719Z,16.95
2023-06-25T03:15:46.533Z,16.98
2023-06-25T03:16:48.515Z,16.99
2023-06-25T03:17:50.823Z,17.00
2023-06-25T03:18:53.005Z,16.99
2023-06-25T03:19:54.968Z,16.96
2023-06-25T03:20:57.038Z,16.96
2023-06-25T03:21:59.088Z,16.98
2023-06-25T03:23:01.098Z,16.98
2023-06-25T03:24:03.202Z,16.96
2023-06-25T03:25:05.772Z,16.95
2023-06-25T03:26:07.796Z,16.97
2023-06-25T03:27:09.802Z,16.96
2023-06-25T03:28:11.881Z,16.97
2023-06-25T03:29:13.900Z,16.99
2023-06-25T03:30:15.919Z,16.98
2023-06-25T03:31:17.924Z,16.98
2023-06-25T03:32:20.183Z,16.99
2023-06-25T03:33:22.225Z,16.97
2023-06-25T03:34:24.230Z,16.99
2023-06-25T03:35:26.259Z,17.00
2023-06-25T03:36:28.271Z,17.01
2023-06-25T03:37:30.260Z,16.99
2023-06-25T03:38:32.342Z,17.00
2023-06-25T03:39:34.390Z,17.00
2023-06-25T03:40:36.603Z,17.02
2023-06-25T03:41:38.597Z,17.03
2023-06-25T03:42:40.633Z,17.08
2023-06-25T03:43:42.720Z,17.07
2023-06-25T03:44:52.554Z,17.08
2023-06-25T03:45:54.603Z,17.10
2023-06-25T03:46:56.649Z,17.15
2023-06-25T03:47:58.742Z,17.17
2023-06-25T03:49:00.989Z,17.19
2023-06-25T03:50:03.156Z,17.21
2023-06-25T03:51:05.155Z,17.22
2023-06-25T03:52:07.651Z,17.24
2023-06-25T03:53:10.088Z,17.27
2023-06-25T03:54:12.096Z,17.28
2023-06-25T03:55:14.166Z,17.26
2023-06-25T03:56:16.184Z,17.31
2023-06-25T03:57:18.164Z,17.33
2023-06-25T03:58:20.232Z,17.34
2023-06-25T03:59:22.229Z,17.36
2023-06-25T04:00:24.305Z,17.37
2023-06-25T04:01:26.296Z,17.39
2023-06-25T04:02:28.482Z,17.38
2023-06-25T04:03:30.559Z,17.38
2023-06-25T04:04:32.593Z,17.38
2023-06-25T04:05:34.986Z,17.39
2023-06-25T04:06:37.129Z,17.41
2023-06-25T04:07:42.191Z,17.42
2023-06-25T04:08:44.366Z,17.44
2023-06-25T04:09:46.351Z,17.47
2023-06-25T04:10:48.396Z,17.45
2023-06-25T04:11:50.356Z,17.49
2023-06-25T04:12:52.329Z,17.52
2023-06-25T04:13:54.331Z,17.54
2023-06-25T04:14:56.361Z,17.55
2023-06-25T04:15:58.363Z,17.54
2023-06-25T04:17:00.405Z,17.56
2023-06-25T04:18:02.544Z,17.57
2023-06-25T04:19:04.562Z,17.57
2023-06-25T04:20:07.843Z,17.58
2023-06-25T04:21:09.974Z,17.59
2023-06-25T04:22:11.955Z,17.63
2023-06-25T04:23:13.931Z,17.63
2023-06-25T04:24:15.948Z,17.67
2023-06-25T04:25:17.919Z,17.67
2023-06-25T04:26:19.928Z,17.68
2023-06-25T04:27:21.952Z,17.67
2023-06-25T04:28:24.008Z,17.67
2023-06-25T04:29:25.993Z,17.68
2023-06-25T04:30:31.052Z,17.72
2023-06-25T04:31:33.146Z,17.73
2023-06-25T04:32:36.030Z,17.75
2023-06-25T04:33:42.766Z,17.75
2023-06-25T04:34:44.876Z,17.76
2023-06-25T04:35:46.895Z,17.75
2023-06-25T04:36:51.705Z,17.77
2023-06-25T04:37:53.735Z,17.76
2023-06-25T04:38:55.741Z,17.78
2023-06-25T04:39:57.763Z,17.81
2023-06-25T04:40:59.789Z,17.80
2023-06-25T04:42:01.827Z,17.85
2023-06-25T04:43:03.887Z,17.89
2023-06-25T04:44:05.896Z,17.90
2023-06-25T04:45:08.439Z,17.91
2023-06-25T04:46:10.440Z,17.93
2023-06-25T04:47:12.472Z,17.94
2023-06-25T04:48:14.518Z,17.95
2023-06-25T04:49:16.751Z,17.91
2023-06-25T04:50:18.761Z,17.91
2023-06-25T04:51:20.726Z,17.95
2023-06-25T04:52:22.731Z,17.97
2023-06-25T04:53:24.734Z,17.97
2023-06-25T04:54:26.743Z,18.01
2023-06-25T04:55:29.853Z,18.06
2023-06-25T04:56:31.861Z,18.03
2023-06-25T04:57:33.892Z,18.05
2023-06-25T04:58:39.910Z,18.07
2023-06-25T04:59:41.888Z,18.08
2023-06-25T05:00:43.884Z,18.10
2023-06-25T05:01:45.961Z,18.14
2023-06-25T05:02:48.004Z,18.18
2023-06-25T05:03:50.131Z,18.20
2023-06-25T05:04:52.284Z,18.22
2023-06-25T05:05:54.315Z,18.21
2023-06-25T05:06:56.342Z,18.21
2023-06-25T05:07:58.412Z,18.24
2023-06-25T05:09:00.404Z,18.26
2023-06-25T05:10:02.418Z,18.29
2023-06-25T05:11:06.773Z,18.30
2023-06-25T05:12:11.869Z,18.30
2023-06-25T05:13:13.873Z,18.35
2023-06-25T05:14:15.891Z,18.34
2023-06-25T05:15:18.995Z,18.37
2023-06-25T05:16:21.090Z,18.41
2023-06-25T05:17:23.079Z,18.42
2023-06-25T05:18:25.047Z,18.40
2023-06-25T05:19:27.019Z,18.44
2023-06-25T05:20:32.518Z,18.43
2023-06-25T05:21:34.474Z,18.45
2023-06-25T05:22:36.435Z,18.45
2023-06-25T05:23:45.272Z,18.46
2023-06-25T05:24:47.339Z,18.50
2023-06-25T05:25:49.402Z,18.52
2023-06-25T05:26:54.358Z,18.56
2023-06-25T05:27:56.382Z,18.57
2023-06-25T05:28:59.049Z,18.63
2023-06-25T05:30:01.066Z,18.64
2023-06-25T05:31:03.057Z,18.67
2023-06-25T05:32:06.140Z,18.68
2023-06-25T05:33:09.909Z,18.72
2023-06-25T05:34:12.027Z,18.75
2023-06-25T05:35:14.041Z,18.76
2023-06-25T05:36:17.004Z,18.80
2023-06-25T05:37:19.005Z,18.84
2023-06-25T05:38:21.019Z,18.87
2023-06-25T05:39:29.871Z,18.90
2023-06-25T05:40:31.847Z,18.93
2023-06-25T05:41:34.197Z,18.95
2023-06-25T05:42:36.165Z,18.97
2023-06-25T05:43:38.135Z,19.00
2023-06-25T05:44:43.347Z,19.01
2023-06-25T05:45:45.350Z,19.02
2023-06-25T05:46:50.555Z,19.02
2023-06-25T05:47:52.721Z,19.07
2023-06-25T05:48:54.774Z,19.06
2023-06-25T05:49:56.788Z,19.07
2023-06-25T05:50:58.781Z,19.08
2023-06-25T05:52:00.787Z,19.12
2023-06-25T05:53:02.818Z,19.11
2023-06-25T05:54:04.881Z,19.13
2023-06-25T05:55:06.998Z,19.15
2023-06-25T05:56:10.110Z,19.15
2023-06-25T05:57:13.291Z,19.16
2023-06-25T05:58:15.297Z,19.19
2023-06-25T05:59:17.403Z,19.22
2023-06-25T06:00:22.507Z,19.27
2023-06-25T06:01:24.586Z,19.28
2023-06-25T06:02:26.575Z,19.30
2023-06-25T06:03:28.602Z,19.32
2023-06-25T06:04:30.751Z,19.32
2023-06-25T06:05:32.809Z,19.32
2023-06-25T06:06:34.855Z,19.34
2023-06-25T06:07:36.888Z,19.32
2023-06-25T06:08:38.873Z,19.36
2023-06-25T06:09:40.845Z,19.37
2023-06-25T06:10:45.614Z,19.40
2023-06-25T06:11:50.560Z,19.39
2023-06-25T06:12:52.559Z,19.37
2023-06-25T06:13:57.137Z,19.40
2023-06-25T06:14:59.657Z,19.43
2023-06-25T06:16:01.671Z,19.44
2023-06-25T06:17:03.812Z,19.46
2023-06-25T06:18:05.942Z,19.49
2023-06-25T06:19:08.042Z,19.48
2023-06-25T06:20:10.322Z,19.50
2023-06-25T06:21:12.321Z,19.55
2023-06-25T06:22:14.394Z,19.59
2023-06-25T06:23:16.376Z,19.62
2023-06-25T06:24:18.420Z,19.67
2023-06-25T06:25:20.436Z,19.69
2023-06-25T06:26:22.473Z,19.71
2023-06-25T06:27:24.556Z,19.72
2023-06-25T06:28:26.555Z,19.73
2023-06-25T06:29:28.559Z,19.79
2023-06-25T06:30:30.641Z,19.82
2023-06-25T06:31:33.240Z,19.83
2023-06-25T06:32:35.235Z,19.87
2023-06-25T06:33:39.242Z,19.91
2023-06-25T06:34:42.823Z,19.96
2023-06-25T06:35:44.788Z,19.97
2023-06-25T06:36:46.860Z,19.96
2023-06-25T06:37:48.899Z,20.01
2023-06-25T06:38:51.432Z,20.01
2023-06-25T06:39:53.427Z,20.08
2023-06-25T06:40:55.497Z,20.04
2023-06-25T06:41:57.514Z,20.04
2023-06-25T06:42:59.538Z,20.04
2023-06-25T06:44:20.047Z,20.05
2023-06-25T06:45:22.032Z,19.98
2023-06-25T06:46:24.043Z,19.95
2023-06-25T06:47:26.077Z,19.99
2023-06-25T06:48:28.092Z,19.97
2023-06-25T06:49:30.069Z,19.99
2023-06-25T06:50:32.063Z,19.97
2023-06-25T06:51:37.177Z,20.00
2023-06-25T06:52:39.198Z,20.00
2023-06-25T06:53:44.331Z,20.03
2023-06-25T06:54:46.342Z,20.03
2023-06-25T06:55:48.377Z,20.02
2023-06-25T06:56:50.358Z,20.08
2023-06-25T06:57:52.392Z,20.14
2023-06-25T06:58:54.461Z,20.16
2023-06-25T06:59:57.574Z,20.21
2023-06-25T07:00:59.618Z,20.28
2023-06-25T07:02:01.699Z,20.27
2023-06-25T07:03:03.960Z,20.31
2023-06-25T07:04:06.071Z,20.32
2023-06-25T07:05:08.320Z,20.36
2023-06-25T07:06:10.396Z,20.36
2023-06-25T07:07:12.441Z,20.37
2023-06-25T07:08:17.356Z,20.40
2023-06-25T07:09:25.378Z,20.44
2023-06-25T07:10:27.757Z,20.46
2023-06-25T07:11:29.744Z,20.51
2023-06-25T07:12:31.768Z,20.52
2023-06-25T07:13:34.040Z,20.57
2023-06-25T07:14:36.057Z,20.62
2023-06-25T07:15:38.817Z,20.63
2023-06-25T07:16:43.148Z,20.67
2023-06-25T07:17:45.481Z,20.69
2023-06-25T07:18:47.544Z,20.72
2023-06-25T07:19:49.518Z,20.76
2023-06-25T07:20:51.737Z,20.76
2023-06-25T07:21:53.793Z,20.82
2023-06-25T07:22:55.808Z,20.88
2023-06-25T07:23:57.831Z,20.85
2023-06-25T07:25:00.268Z,20.88
2023-06-25T07:26:02.281Z,20.90
2023-06-25T07:27:04.485Z,20.93
2023-06-25T07:28:06.478Z,20.91
2023-06-25T07:29:08.646Z,20.83
2023-06-25T07:30:11.001Z,20.86
2023-06-25T07:31:13.107Z,20.91
2023-06-25T07:32:15.132Z,20.91
2023-06-25T07:33:17.268Z,20.91
2023-06-25T07:34:19.381Z,20.87
2023-06-25T07:35:23.009Z,20.91
2023-06-25T07:36:25.062Z,20.89
2023-06-25T07:37:30.171Z,20.94
2023-06-25T07:38:32.466Z,20.96
2023-06-25T07:39:34.914Z,20.96
2023-06-25T07:40:36.955Z,20.98
2023-06-25T07:41:39.310Z,21.05
2023-06-25T07:42:41.353Z,21.05
2023-06-25T07:43:43.363Z,21.08
2023-06-25T07:44:55.745Z,21.11
2023-06-25T07:46:00.531Z,21.13
2023-06-25T07:47:02.556Z,21.16
2023-06-25T07:48:04.754Z,21.14
2023-06-25T07:49:06.808Z,21.22
2023-06-25T07:50:09.010Z,21.28
2023-06-25T07:51:10.988Z,21.30
2023-06-25T07:52:13.000Z,21.31
2023-06-25T07:53:14.986Z,21.36
2023-06-25T07:54:17.018Z,21.36
2023-06-25T07:55:19.172Z,21.36
2023-06-25T07:56:21.203Z,21.40
2023-06-25T07:57:25.892Z,21.43
2023-06-25T07:58:27.947Z,21.46
2023-06-25T07:59:42.521Z,21.48
2023-06-25T08:00:51.947Z,21.44
2023-06-25T08:01:54.014Z,21.43
2023-06-25T08:02:59.060Z,21.47
2023-06-25T08:04:02.757Z,21.47
2023-06-25T08:05:05.080Z,21.49
2023-06-25T08:06:07.210Z,21.45
2023-06-25T08:07:10.228Z,21.41
2023-06-25T08:08:12.315Z,21.46
2023-06-25T08:09:14.343Z,21.45
2023-06-25T08:10:16.391Z,21.45
2023-06-25T08:11:21.489Z,21.47
2023-06-25T08:12:23.470Z,21.46
2023-06-25T08:13:25.464Z,21.44
2023-06-25T08:14:27.482Z,21.44
2023-06-25T08:15:29.454Z,21.45
2023-06-25T08:16:31.555Z,21.46
2023-06-25T08:17:33.614Z,21.43
2023-06-25T08:18:35.621Z,21.45
2023-06-25T08:19:37.608Z,21.47
2023-06-25T08:20:40.253Z,21.47
2023-06-25T08:21:42.268Z,21.48
2023-06-25T08:22:47.123Z,21.47
2023-06-25T08:23:49.113Z,21.51
2023-06-25T08:24:51.739Z,21.50
2023-06-25T08:25:55.237Z,21.50
2023-06-25T08:26:57.251Z,21.50
2023-06-25T08:27:59.258Z,21.50
2023-06-25T08:29:01.223Z,21.48
2023-06-25T08:30:05.632Z,21.49
2023-06-25T08:31:08.018Z,21.42
2023-06-25T08:32:10.048Z,21.46
2023-06-25T08:33:12.040Z,21.43
2023-06-25T08:34:14.043Z,21.46
2023-06-25T08:35:16.151Z,21.46
2023-06-25T08:36:18.169Z,21.43
2023-06-25T08:37:20.249Z,21.41
2023-06-25T08:38:26.252Z,21.36
2023-06-25T08:39:28.724Z,21.33
2023-06-25T08:40:31.684Z,21.31
2023-06-25T08:41:33.751Z,21.32
2023-06-25T08:42:35.767Z,21.31
2023-06-25T08:43:37.782Z,21.31
2023-06-25T08:44:39.792Z,21.32
2023-06-25T08:45:42.297Z,21.31
2023-06-25T08:46:50.733Z,21.31
2023-06-25T08:47:56.757Z,21.30
2023-06-25T08:49:00.013Z,21.28
2023-06-25T08:50:02.033Z,21.29
2023-06-25T08:51:08.021Z,21.33
2023-06-25T08:52:09.996Z,21.34
2023-06-25T08:53:12.003Z,21.33
2023-06-25T08:54:14.070Z,21.43
2023-06-25T08:55:16.123Z,21.50
2023-06-25T08:56:18.200Z,21.52
2023-06-25T08:57:20.651Z,21.56
2023-06-25T08:58:22.870Z,21.59
2023-06-25T08:59:24.854Z,21.64
2023-06-25T09:00:26.912Z,21.68
2023-06-25T09:01:28.993Z,21.72
2023-06-25T09:02:31.033Z,21.77
2023-06-25T09:03:33.105Z,21.81
2023-06-25T09:04:35.241Z,21.92
2023-06-25T09:05:37.508Z,22.03
2023-06-25T09:06:50.651Z,22.08
2023-06-25T09:08:00.851Z,22.14
2023-06-25T09:09:03.858Z,22.18
2023-06-25T09:10:09.213Z,22.12
2023-06-25T09:11:11.218Z,22.16
2023-06-25T09:12:13.799Z,22.19
2023-06-25T09:13:27.378Z,22.22
2023-06-25T09:14:31.000Z,22.27
2023-06-25T09:15:33.089Z,22.29
2023-06-25T09:16:45.418Z,22.38
2023-06-25T09:17:47.438Z,22.39
2023-06-25T09:18:49.490Z,22.45
2023-06-25T09:19:52.494Z,22.50
2023-06-25T09:20:55.858Z,22.52
2023-06-25T09:21:58.150Z,22.56
2023-06-25T09:23:05.374Z,22.60
2023-06-25T09:24:17.569Z,22.65
2023-06-25T09:25:23.807Z,22.68
2023-06-25T09:26:25.781Z,22.76
2023-06-25T09:27:27.792Z,22.73
2023-06-25T09:28:29.865Z,22.77
2023-06-25T09:29:38.166Z,22.77
2023-06-25T09:30:40.514Z,22.78
2023-06-25T09:31:43.967Z,22.87
2023-06-25T09:32:55.388Z,22.91
2023-06-25T09:33:57.447Z,22.96
2023-06-25T09:34:59.463Z,23.01
2023-06-25T09:36:05.075Z,23.04
2023-06-25T09:37:13.513Z,23.13
2023-06-25T09:38:15.543Z,23.22
2023-06-25T09:39:17.557Z,23.35
2023-06-25T09:40:22.817Z,23.58
2023-06-25T09:41:24.842Z,23.81
2023-06-25T09:42:27.148Z,23.97
2023-06-25T09:43:29.170Z,24.07
2023-06-25T09:44:31.345Z,24.11
2023-06-25T09:45:33.383Z,24.07
2023-06-25T09:46:39.618Z,24.05
2023-06-25T09:47:42.814Z,24.01
2023-06-25T09:48:44.836Z,24.05
2023-06-25T09:49:46.902Z,24.08
2023-06-25T09:50:49.981Z,24.04
2023-06-25T09:52:15.653Z,24.04
2023-06-25T09:53:23.092Z,24.03
2023-06-25T09:54:25.788Z,24.03
2023-06-25T09:55:28.882Z,24.08
2023-06-25T09:56:32.512Z,24.17
2023-06-25T09:57:34.527Z,24.22
2023-06-25T09:58:36.560Z,24.15
2023-06-25T09:59:38.589Z,24.28
2023-06-25T10:00:40.715Z,24.43
2023-06-25T10:01:42.966Z,24.63
2023-06-25T10:02:46.297Z,24.60
2023-06-25T10:03:48.486Z,24.59
2023-06-25T10:04:50.892Z,24.56
2023-06-25T10:05:53.007Z,24.42
2023-06-25T10:06:55.109Z,24.36
2023-06-25T10:07:57.403Z,24.26
2023-06-25T10:08:59.385Z,24.19
2023-06-25T10:10:01.475Z,24.18
2023-06-25T10:11:05.621Z,24.17
2023-06-25T10:12:08.187Z,24.22
2023-06-25T10:13:10.606Z,24.21
2023-06-25T10:14:15.006Z,24.09
2023-06-25T10:15:38.011Z,24.18
2023-06-25T10:16:40.737Z,24.16
2023-06-25T10:17:51.922Z,24.28
2023-06-25T10:18:57.474Z,24.35
2023-06-25T10:20:01.636Z,24.40
2023-06-25T10:21:03.996Z,24.41
2023-06-25T10:22:13.509Z,24.39
2023-06-25T10:23:24.106Z,24.36
2023-06-25T10:24:42.483Z,24.20
2023-06-25T10:25:58.078Z,24.17
2023-06-25T10:27:00.083Z,24.17
2023-06-25T10:28:12.818Z,24.16
2023-06-25T10:29:14.841Z,24.26
2023-06-25T10:30:16.945Z,24.23
2023-06-25T10:31:19.488Z,24.18
2023-06-25T10:32:25.295Z,24.06
2023-06-25T10:33:33.231Z,24.08
2023-06-25T10:34:38.916Z,24.03
2023-06-25T10:35:41.991Z,24.05
2023-06-25T10:36:51.217Z,23.98
2023-06-25T10:37:53.187Z,24.01
2023-06-25T10:38:55.160Z,24.02
2023-06-25T10:40:26.768Z,24.03
2023-06-25T10:41:31.951Z,23.96
2023-06-25T10:42:33.959Z,24.04
2023-06-25T10:43:37.596Z,24.04
2023-06-25T10:44:40.366Z,24.07
2023-06-25T10:45:48.606Z,24.06
2023-06-25T10:46:50.704Z,24.07
2023-06-25T10:48:14.280Z,24.01
2023-06-25T10:49:20.249Z,23.99
2023-06-25T10:50:22.231Z,24.04
2023-06-25T10:51:24.449Z,24.06
2023-06-25T10:52:32.242Z,24.27
2023-06-25T10:53:34.240Z,24.30
2023-06-25T10:54:36.215Z,24.34
2023-06-25T10:55:39.698Z,24.31
2023-06-25T10:56:41.829Z,24.34
2023-06-25T10:57:44.149Z,24.35
2023-06-25T10:58:46.418Z,24.35
2023-06-25T10:59:49.833Z,24.40
2023-06-25T11:00:58.565Z,24.37
2023-06-25T11:02:23.826Z,24.37
2023-06-25T11:03:26.320Z,24.42
2023-06-25T11:04:28.571Z,24.66
2023-06-25T11:05:40.948Z,24.89
2023-06-25T11:06:43.003Z,25.24
2023-06-25T11:07:45.035Z,25.89
2023-06-25T11:08:48.999Z,26.31
2023-06-25T11:10:00.058Z,26.73
2023-06-25T11:11:02.073Z,27.08
2023-06-25T11:12:06.875Z,27.26
2023-06-25T11:13:12.550Z,26.99
2023-06-25T11:14:14.661Z,26.78
2023-06-25T11:15:18.285Z,26.64
2023-06-25T11:16:20.671Z,26.50
2023-06-25T11:17:23.386Z,26.38
2023-06-25T11:18:25.455Z,26.13
2023-06-25T11:19:27.622Z,25.99
2023-06-25T11:20:31.106Z,25.82
2023-06-25T11:21:36.772Z,25.59
2023-06-25T11:22:43.376Z,25.44
2023-06-25T11:23:45.832Z,25.25
2023-06-25T11:24:47.986Z,25.15
2023-06-25T11:25:50.061Z,25.06
2023-06-25T11:26:58.037Z,24.94
2023-06-25T11:28:06.580Z,24.78
2023-06-25T11:29:09.118Z,24.69
2023-06-25T11:30:11.300Z,24.73
2023-06-25T11:31:13.427Z,24.70
2023-06-25T11:32:22.304Z,24.68
2023-06-25T11:33:24.284Z,24.62
2023-06-25T11:34:26.647Z,24.57
2023-06-25T11:35:28.636Z,24.54
2023-06-25T11:36:30.664Z,24.47
2023-06-25T11:37:42.468Z,24.43
2023-06-25T11:38:44.951Z,24.41
2023-06-25T11:39:47.947Z,24.35
2023-06-25T11:40:52.070Z,24.29
2023-06-25T11:41:57.041Z,24.24
2023-06-25T11:42:59.056Z,24.22
2023-06-25T11:44:01.196Z,24.17
2023-06-25T11:45:08.812Z,24.20
2023-06-25T11:46:13.088Z,24.21
2023-06-25T11:47:15.459Z,24.22
2023-06-25T11:48:18.138Z,24.29
2023-06-25T11:49:21.000Z,24.37
2023-06-25T11:50:24.688Z,24.37
2023-06-25T11:51:26.706Z,24.44
2023-06-25T11:52:28.698Z,24.54
2023-06-25T11:53:30.670Z,24.58
2023-06-25T11:54:32.683Z,24.70
2023-06-25T11:55:34.808Z,24.81
2023-06-25T11:56:36.982Z,24.98
2023-06-25T11:57:40.273Z,25.05
2023-06-25T11:58:42.240Z,25.17
2023-06-25T11:59:44.634Z,25.19
2023-06-25T12:00:46.724Z,25.26
2023-06-25T12:01:48.819Z,25.33
2023-06-25T12:02:50.900Z,25.44
2023-06-25T12:03:53.021Z,25.42
2023-06-25T12:04:55.473Z,25.48
2023-06-25T12:05:59.754Z,25.56
2023-06-25T12:07:02.071Z,25.54
2023-06-25T12:08:04.210Z,25.56
2023-06-25T12:09:06.200Z,25.59
2023-06-25T12:10:08.627Z,25.65
2023-06-25T12:11:12.933Z,25.61
2023-06-25T12:12:16.621Z,25.54
2023-06-25T12:13:18.625Z,25.47
2023-06-25T12:14:20.647Z,25.45
2023-06-25T12:15:22.993Z,25.41
2023-06-25T12:16:25.078Z,25.35
2023-06-25T12:17:27.139Z,25.33
2023-06-25T12:18:29.171Z,25.31
2023-06-25T12:19:31.203Z,25.22
2023-06-25T12:20:33.895Z,25.21
2023-06-25T12:21:35.920Z,25.22
2023-06-25T12:22:37.897Z,25.24
2023-06-25T12:23:39.895Z,25.22
2023-06-25T12:24:41.926Z,25.20
2023-06-25T12:25:43.998Z,25.17
2023-06-25T12:26:46.317Z,25.22
2023-06-25T12:27:48.310Z,25.29
2023-06-25T12:28:50.381Z,25.33
2023-06-25T12:29:52.392Z,25.27
2023-06-25T12:30:54.405Z,25.25
2023-06-25T12:31:56.538Z,25.24
2023-06-25T12:32:58.620Z,25.23
2023-06-25T12:34:00.689Z,25.04
2023-06-25T12:35:02.963Z,25.05
2023-06-25T12:36:05.250Z,25.04
2023-06-25T12:37:07.305Z,25.04
2023-06-25T12:38:09.412Z,25.02
2023-06-25T12:39:11.402Z,25.05
2023-06-25T12:40:15.008Z,25.06
2023-06-25T12:41:18.669Z,25.04
2023-06-25T12:42:20.694Z,25.04
2023-06-25T12:43:22.788Z,24.95
2023-06-25T12:44:24.763Z,24.89
2023-06-25T12:45:26.998Z,24.81
2023-06-25T12:46:29.042Z,24.76
2023-06-25T12:47:31.046Z,24.67
2023-06-25T12:48:33.282Z,24.52
2023-06-25T12:49:37.982Z,24.50
2023-06-25T12:50:40.023Z,24.46
2023-06-25T12:51:42.027Z,24.40
2023-06-25T12:52:44.051Z,24.42
2023-06-25T12:53:46.071Z,24.38
2023-06-25T12:54:48.088Z,24.35
2023-06-25T12:55:50.074Z,24.40
2023-06-25T12:56:52.097Z,24.37
2023-06-25T12:57:54.159Z,24.46
2023-06-25T12:58:56.150Z,24.53
2023-06-25T12:59:58.312Z,24.65
2023-06-25T13:01:07.256Z,24.74
2023-06-25T13:02:10.478Z,24.86
2023-06-25T13:03:12.635Z,24.93
2023-06-25T13:04:14.706Z,25.04
2023-06-25T13:05:17.158Z,25.17
2023-06-25T13:06:19.764Z,25.22
2023-06-25T13:07:21.800Z,25.22
2023-06-25T13:08:27.838Z,25.26
2023-06-25T13:09:30.785Z,25.27
2023-06-25T13:10:32.786Z,25.20
2023-06-25T13:11:35.681Z,25.20
2023-06-25T13:12:38.875Z,25.14
2023-06-25T13:13:41.005Z,25.18
2023-06-25T13:14:44.076Z,25.16
2023-06-25T13:15:46.081Z,25.20
2023-06-25T13:16:51.269Z,25.24
2023-06-25T13:17:53.480Z,25.24
2023-06-25T13:18:55.693Z,25.23
2023-06-25T13:19:57.689Z,25.16
2023-06-25T13:21:00.692Z,25.17
2023-06-25T13:22:03.192Z,25.17
2023-06-25T13:23:05.533Z,25.08
2023-06-25T13:24:07.740Z,25.05
2023-06-25T13:25:09.709Z,25.05
2023-06-25T13:26:11.907Z,25.02
2023-06-25T13:27:13.908Z,24.95
2023-06-25T13:28:15.959Z,24.89
2023-06-25T13:29:17.976Z,24.85
2023-06-25T13:30:26.686Z,24.86
2023-06-25T13:31:28.787Z,24.85
2023-06-25T13:32:30.929Z,24.88
2023-06-25T13:33:35.748Z,24.86
2023-06-25T13:34:37.724Z,24.88